Time;durP1;ratioP1;P1;durP2;ratioP2;P2;SDS_P1;SDS_P2;PMS_P1;PMS_P2;Temp;Humidity;BMP_temperature;BMP_pressure;BME280_temperature;BME280_humidity;BME280_pressure;Samples;Min_cycle;Max_cycle;Signal;HPM_P1;HPM_P2
2022/10/30 00:01:47;;;;;;;16.70;4.95;;;19.50;99.80;;;;;;5018347;28;20516;-80
2022/10/30 00:06:48;;;;;;;16.48;4.05;;;19.40;99.80;;;;;;5027710;28;20044;-91
2022/10/30 00:09:16;;;;;;;14.60;4.13;;;19.40;99.80;;;;;;5018863;28;20103;-90
2022/10/30 00:11:43;;;;;;;15.80;5.28;;;19.40;99.30;;;;;;5022805;28;20417;-91
2022/10/30 00:14:12;;;;;;;14.82;4.28;;;19.40;99.40;;;;;;5021928;28;20061;-90
2022/10/30 00:16:42;;;;;;;13.23;4.25;;;19.40;99.30;;;;;;5009405;28;20498;-91
2022/10/30 00:19:09;;;;;;;13.23;4.90;;;19.40;99.10;;;;;;5024314;28;20498;-91
2022/10/30 00:21:38;;;;;;;12.52;4.57;;;19.40;99.20;;;;;;5025921;28;20065;-90
2022/10/30 00:24:05;;;;;;;14.93;5.07;;;19.40;99.00;;;;;;5028937;28;20064;-90
2022/10/30 00:26:32;;;;;;;18.70;4.82;;;19.40;99.00;;;;;;5027218;28;20469;-90
2022/10/30 00:28:59;;;;;;;12.07;4.05;;;19.40;99.10;;;;;;5029730;28;20068;-90
2022/10/30 00:31:27;;;;;;;14.63;4.68;;;19.40;99.00;;;;;;5026229;28;20092;-90
2022/10/30 00:33:55;;;;;;;15.90;4.78;;;19.40;99.30;;;;;;5016157;28;20409;-92
2022/10/30 00:36:23;;;;;;;13.07;4.10;;;19.40;99.60;;;;;;5029250;28;20410;-91
2022/10/30 00:38:50;;;;;;;15.65;4.43;;;19.40;99.20;;;;;;5028342;28;20041;-91
2022/10/30 00:41:21;;;;;;;15.32;4.50;;;19.40;99.50;;;;;;5011506;28;20132;-91
2022/10/30 00:43:48;;;;;;;13.60;4.57;;;19.40;99.70;;;;;;5034201;28;20383;-91
2022/10/30 00:46:18;;;;;;;15.88;4.72;;;19.30;99.70;;;;;;5034329;28;20046;-91
2022/10/30 00:48:50;;;;;;;10.10;3.92;;;19.40;99.90;;;;;;5021656;28;20516;-91
2022/10/30 00:51:16;;;;;;;;;;;19.40;99.70;;;;;;5017671;28;20043;-90
2022/10/30 00:53:44;;;;;;;14.25;4.20;;;19.30;99.90;;;;;;5014400;28;19925;-91
2022/10/30 00:56:11;;;;;;;18.38;4.72;;;19.30;99.70;;;;;;5023108;28;20053;-90
2022/10/30 00:58:42;;;;;;;9.90;4.40;;;19.30;99.80;;;;;;5023184;28;20041;-90
2022/10/30 01:01:13;;;;;;;11.70;4.78;;;19.40;99.90;;;;;;5017949;28;20160;-90
2022/10/30 01:03:40;;;;;;;12.65;4.63;;;19.30;99.90;;;;;;5017839;28;20132;-90
2022/10/30 01:06:11;;;;;;;11.52;4.07;;;19.30;99.90;;;;;;5034835;28;20049;-91
2022/10/30 01:08:38;;;;;;;;;;;19.30;99.90;;;;;;5037454;28;20480;-91
2022/10/30 01:11:06;;;;;;;13.70;4.10;;;19.30;99.90;;;;;;5015521;28;19979;-91
2022/10/30 01:13:34;;;;;;;17.63;4.53;;;19.30;99.90;;;;;;5017364;28;20049;-91
2022/10/30 01:16:17;;;;;;;12.30;4.72;;;19.30;99.90;;;;;;5030529;28;20049;-90
2022/10/30 01:18:49;;;;;;;17.05;5.05;;;19.20;99.90;;;;;;5019428;28;20498;-91
2022/10/30 01:21:34;;;;;;;13.80;4.63;;;19.20;99.90;;;;;;5017245;28;20164;-89
2022/10/30 01:24:22;;;;;;;14.20;4.50;;;19.20;99.90;;;;;;5017497;28;20049;-91
2022/10/30 01:26:52;;;;;;;13.38;4.72;;;19.20;99.90;;;;;;5033202;28;20045;-91
2022/10/30 01:29:32;;;;;;;11.68;4.50;;;19.20;99.90;;;;;;5016660;28;20041;-91
2022/10/30 01:32:17;;;;;;;17.02;4.45;;;19.20;99.90;;;;;;5016507;28;20048;-91
2022/10/30 01:34:50;;;;;;;16.48;4.90;;;19.20;99.90;;;;;;5019878;28;20128;-91
2022/10/30 01:37:24;;;;;;;14.80;4.60;;;19.10;99.90;;;;;;5016693;28;20510;-90
2022/10/30 01:39:52;;;;;;;14.20;4.30;;;19.10;99.90;;;;;;5019112;28;20045;-90
2022/10/30 01:42:49;;;;;;;12.40;4.55;;;19.10;99.90;;;;;;5017700;28;20111;-90
2022/10/30 01:45:27;;;;;;;12.02;4.18;;;19.10;99.90;;;;;;5016690;28;20135;-91
2022/10/30 01:48:16;;;;;;;16.80;4.65;;;19.10;99.90;;;;;;5017636;28;20175;-91
2022/10/30 01:50:55;;;;;;;12.07;4.60;;;19.10;99.90;;;;;;5013922;28;20046;-90
2022/10/30 01:53:33;;;;;;;13.52;4.65;;;19.10;99.90;;;;;;5043398;28;20559;-90
2022/10/30 01:56:10;;;;;;;15.93;4.80;;;19.10;99.90;;;;;;5030147;28;20391;-91
2022/10/30 01:58:43;;;;;;;13.85;4.35;;;19.10;99.90;;;;;;5036174;28;20770;-92
2022/10/30 02:01:10;;;;;;;14.48;5.00;;;19.10;99.90;;;;;;5019053;28;20095;-91
2022/10/30 02:03:38;;;;;;;10.52;4.30;;;19.20;99.90;;;;;;5018566;28;20080;-91
2022/10/30 02:06:06;;;;;;;14.80;4.97;;;19.10;99.90;;;;;;5024778;28;20063;-92
2022/10/30 02:08:34;;;;;;;13.27;4.75;;;19.10;99.90;;;;;;5039889;28;20054;-90
2022/10/30 02:11:01;;;;;;;16.50;4.63;;;19.10;99.90;;;;;;5030648;28;20405;-92
2022/10/30 02:13:41;;;;;;;13.27;4.40;;;19.00;99.90;;;;;;5031594;28;20057;-91
2022/10/30 02:16:09;;;;;;;9.55;4.45;;;19.00;99.90;;;;;;5019325;28;20072;-91
2022/10/30 02:18:36;;;;;;;9.68;4.22;;;19.00;99.90;;;;;;5019749;28;20124;-91
2022/10/30 02:21:05;;;;;;;13.70;5.00;;;19.00;99.90;;;;;;5012677;28;20072;-91
2022/10/30 02:23:32;;;;;;;12.43;4.20;;;19.00;99.90;;;;;;5031213;28;20048;-91
2022/10/30 02:25:59;;;;;;;15.23;5.10;;;19.00;99.90;;;;;;5036441;28;20041;-91
2022/10/30 02:28:27;;;;;;;10.02;4.55;;;19.00;99.90;;;;;;5019987;28;20789;-91
2022/10/30 02:30:54;;;;;;;13.60;4.75;;;19.00;99.90;;;;;;5013358;28;20055;-92
2022/10/30 02:33:23;;;;;;;17.38;4.65;;;18.90;99.90;;;;;;5012827;28;20156;-91
2022/10/30 02:35:50;;;;;;;13.80;4.75;;;18.90;99.90;;;;;;5011935;28;20068;-91
2022/10/30 02:38:18;;;;;;;13.23;4.82;;;18.90;99.90;;;;;;5020521;28;20502;-92
2022/10/30 02:40:46;;;;;;;14.45;4.75;;;18.90;99.90;;;;;;5011073;28;20050;-91
2022/10/30 02:43:13;;;;;;;15.63;4.60;;;18.90;99.90;;;;;;5030503;28;20505;-92
2022/10/30 02:45:40;;;;;;;13.60;4.70;;;18.80;99.90;;;;;;5029190;28;20114;-91
2022/10/30 02:48:07;;;;;;;15.13;4.97;;;18.80;99.90;;;;;;5028859;28;20049;-90
2022/10/30 02:50:34;;;;;;;14.48;4.85;;;18.80;99.90;;;;;;5012493;28;20048;-92
2022/10/30 02:53:01;;;;;;;22.08;5.43;;;18.80;99.90;;;;;;5019671;28;20521;-91
2022/10/30 02:55:30;;;;;;;12.25;4.88;;;18.70;99.90;;;;;;5029424;28;20041;-91
2022/10/30 02:57:57;;;;;;;13.80;4.82;;;18.70;99.90;;;;;;5021363;28;20656;-91
2022/10/30 03:00:24;;;;;;;12.02;5.20;;;18.70;99.90;;;;;;5030120;28;20776;-91
2022/10/30 03:02:55;;;;;;;13.73;4.68;;;18.70;99.90;;;;;;5013108;28;20052;-92
2022/10/30 03:05:22;;;;;;;15.13;5.65;;;18.60;99.90;;;;;;5011777;28;20048;-90
2022/10/30 03:07:50;;;;;;;12.52;4.60;;;18.60;99.90;;;;;;5021270;28;20159;-91
2022/10/30 03:10:17;;;;;;;13.68;5.65;;;18.60;99.90;;;;;;5013906;28;20414;-92
2022/10/30 03:12:45;;;;;;;16.33;5.00;;;18.60;99.90;;;;;;5015415;28;20136;-91
2022/10/30 03:15:12;;;;;;;13.95;5.00;;;18.60;99.90;;;;;;5028176;28;20429;-91
2022/10/30 03:17:39;;;;;;;17.70;5.30;;;18.50;99.90;;;;;;5030327;28;20041;-91
2022/10/30 03:20:07;;;;;;;14.85;4.97;;;18.50;99.90;;;;;;5014352;28;20132;-91
2022/10/30 03:22:34;;;;;;;19.80;5.85;;;18.50;99.90;;;;;;5030286;28;20120;-91
2022/10/30 03:25:01;;;;;;;20.33;5.60;;;18.50;99.90;;;;;;5028387;28;20426;-91
2022/10/30 03:27:28;;;;;;;12.40;4.75;;;18.50;99.90;;;;;;5021200;28;20131;-92
2022/10/30 03:29:56;;;;;;;10.60;4.80;;;18.50;99.90;;;;;;5028285;28;20040;-91
2022/10/30 03:32:25;;;;;;;19.10;5.40;;;18.50;99.90;;;;;;5012097;28;20048;-91
2022/10/30 03:34:54;;;;;;;12.93;4.68;;;18.40;99.90;;;;;;5018303;28;20136;-91
2022/10/30 03:37:21;;;;;;;11.43;4.57;;;18.40;99.90;;;;;;5028492;28;20068;-91
2022/10/30 03:39:47;;;;;;;12.70;4.80;;;18.40;99.90;;;;;;5016930;28;20577;-91
2022/10/30 03:42:14;;;;;;;16.88;5.35;;;18.40;99.90;;;;;;5028990;28;20132;-90
2022/10/30 03:44:42;;;;;;;15.30;5.60;;;18.40;99.90;;;;;;5010635;28;20053;-92
2022/10/30 03:47:10;;;;;;;14.73;4.90;;;18.40;99.90;;;;;;5019739;28;20112;-91
2022/10/30 03:49:40;;;;;;;16.67;5.45;;;18.30;99.90;;;;;;5015327;28;20053;-91
2022/10/30 03:52:11;;;;;;;14.30;5.38;;;18.30;99.90;;;;;;5010846;28;20143;-91
2022/10/30 03:54:38;;;;;;;16.00;5.32;;;18.30;99.90;;;;;;5027877;28;20134;-91
2022/10/30 03:57:05;;;;;;;15.63;4.93;;;18.30;99.90;;;;;;5019642;28;20096;-91
2022/10/30 03:59:42;;;;;;;12.88;5.00;;;18.30;99.90;;;;;;5028091;28;20037;-91
2022/10/30 04:02:29;;;;;;;14.77;5.00;;;18.30;99.90;;;;;;5028244;28;20138;-92
2022/10/30 04:04:55;;;;;;;13.25;5.30;;;18.20;99.90;;;;;;5009546;28;20095;-91
2022/10/30 04:07:23;;;;;;;15.77;5.38;;;18.30;99.90;;;;;;5012021;28;20053;-91
2022/10/30 04:09:50;;;;;;;15.65;5.35;;;18.20;99.90;;;;;;5017772;28;20053;-91
2022/10/30 04:12:17;;;;;;;14.82;5.13;;;18.20;99.90;;;;;;5010636;28;20111;-91
2022/10/30 04:14:44;;;;;;;10.57;5.15;;;18.20;99.90;;;;;;5025771;28;20887;-91
2022/10/30 04:17:11;;;;;;;16.10;5.10;;;18.10;99.90;;;;;;5019522;28;20050;-91
2022/10/30 04:19:39;;;;;;;19.77;5.40;;;18.10;99.90;;;;;;5042393;28;20045;-91
2022/10/30 04:22:06;;;;;;;12.10;5.20;;;18.10;99.90;;;;;;5018532;28;20087;-92
2022/10/30 04:24:34;;;;;;;12.45;5.22;;;18.10;99.90;;;;;;5009811;28;20050;-91
2022/10/30 04:27:01;;;;;;;18.38;5.43;;;18.10;99.90;;;;;;5019376;28;20068;-91
2022/10/30 04:29:28;;;;;;;14.45;5.43;;;18.00;99.90;;;;;;5014519;28;20100;-91
2022/10/30 04:31:55;;;;;;;11.82;5.20;;;18.00;99.90;;;;;;5011299;28;20535;-90
2022/10/30 04:34:22;;;;;;;14.40;5.15;;;18.00;99.90;;;;;;5009543;28;20140;-90
2022/10/30 04:36:51;;;;;;;13.50;5.00;;;18.00;99.90;;;;;;5011193;28;20092;-90
2022/10/30 04:39:17;;;;;;;12.70;5.70;;;18.00;99.90;;;;;;5027751;28;20124;-90
2022/10/30 04:41:45;;;;;;;17.63;6.03;;;18.00;99.90;;;;;;5019473;28;20295;-91
2022/10/30 04:44:18;;;;;;;15.13;5.70;;;17.90;99.90;;;;;;5010981;28;20052;-91
2022/10/30 04:46:45;;;;;;;18.98;5.50;;;17.90;99.90;;;;;;5018504;28;20144;-90
2022/10/30 04:49:12;;;;;;;15.68;6.00;;;17.90;99.90;;;;;;5018956;28;20081;-91
2022/10/30 04:51:45;;;;;;;11.55;5.50;;;17.90;99.90;;;;;;5010602;28;20056;-90
2022/10/30 04:54:13;;;;;;;20.30;5.53;;;17.90;99.90;;;;;;4991608;28;20136;-90
2022/10/30 04:56:40;;;;;;;13.77;5.32;;;17.90;99.90;;;;;;5010810;28;20045;-91
2022/10/30 04:59:07;;;;;;;15.50;5.43;;;17.90;99.90;;;;;;5018330;28;20533;-90
2022/10/30 05:01:34;;;;;;;17.17;5.80;;;17.80;99.90;;;;;;5010909;28;20041;-91
2022/10/30 05:04:02;;;;;;;17.85;5.88;;;17.80;99.90;;;;;;5010984;28;20049;-91
2022/10/30 05:06:31;;;;;;;13.30;5.75;;;17.80;99.90;;;;;;5017729;28;20103;-91
2022/10/30 05:08:58;;;;;;;8.60;4.85;;;17.80;99.90;;;;;;5027870;28;20120;-90
2022/10/30 05:11:39;;;;;;;14.32;5.40;;;17.80;99.90;;;;;;5007247;28;20042;-91
2022/10/30 05:14:06;;;;;;;22.58;5.82;;;17.80;99.90;;;;;;5015986;28;20387;-91
2022/10/30 05:16:33;;;;;;;18.90;6.20;;;17.80;99.90;;;;;;5017003;28;20444;-91
2022/10/30 05:19:03;;;;;;;15.32;5.68;;;17.70;99.90;;;;;;5018312;28;20091;-91
2022/10/30 05:21:30;;;;;;;12.55;5.25;;;17.70;99.90;;;;;;5009593;28;20502;-91
2022/10/30 05:23:58;;;;;;;14.75;6.07;;;17.70;99.90;;;;;;5010570;28;20042;-91
2022/10/30 05:26:26;;;;;;;15.35;6.30;;;17.70;99.90;;;;;;5016882;28;20056;-91
2022/10/30 05:28:54;;;;;;;18.60;5.93;;;17.70;99.90;;;;;;5018645;28;20065;-91
2022/10/30 05:31:23;;;;;;;14.57;5.80;;;17.60;99.90;;;;;;5027407;28;20076;-91
2022/10/30 05:33:56;;;;;;;19.02;5.55;;;17.60;99.90;;;;;;5032035;28;20045;-91
2022/10/30 05:36:24;;;;;;;14.38;6.20;;;17.60;99.90;;;;;;5027829;28;20139;-91
2022/10/30 05:38:52;;;;;;;14.23;5.80;;;17.60;99.90;;;;;;5022193;28;20037;-91
2022/10/30 05:41:46;;;;;;;14.15;5.85;;;17.50;99.90;;;;;;5024033;28;20041;-91
2022/10/30 05:44:14;;;;;;;11.90;5.70;;;17.50;99.90;;;;;;5020544;28;20056;-91
2022/10/30 05:46:43;;;;;;;15.38;5.10;;;17.40;99.90;;;;;;5022375;28;20421;-91
2022/10/30 05:49:37;;;;;;;17.48;5.70;;;17.40;99.90;;;;;;5022389;28;20045;-90
2022/10/30 05:52:08;;;;;;;20.08;6.28;;;17.40;99.90;;;;;;5030208;28;20052;-90
2022/10/30 05:54:35;;;;;;;18.23;6.18;;;17.30;99.90;;;;;;5032294;28;20053;-90
2022/10/30 05:57:23;;;;;;;19.20;5.90;;;17.20;99.90;;;;;;5016431;28;20092;-91
2022/10/30 05:59:51;;;;;;;14.07;5.70;;;17.20;99.90;;;;;;5017274;28;20049;-85
2022/10/30 06:02:19;;;;;;;14.25;5.72;;;17.20;99.90;;;;;;5022554;28;20123;-90
2022/10/30 06:04:46;;;;;;;11.73;5.80;;;17.10;99.90;;;;;;5045184;23;21640;-83
2022/10/30 06:07:14;;;;;;;14.05;5.50;;;17.10;99.90;;;;;;5020849;28;20068;-83
2022/10/30 06:09:41;;;;;;;16.45;5.38;;;17.10;99.90;;;;;;5015448;28;22339;-85
2022/10/30 06:12:23;;;;;;;23.00;6.25;;;17.00;99.90;;;;;;5012909;28;20049;-84
2022/10/30 06:14:59;;;;;;;18.25;5.90;;;17.00;99.90;;;;;;5026054;28;20049;-84
2022/10/30 06:17:26;;;;;;;14.73;6.45;;;17.00;99.90;;;;;;5013497;28;20123;-84
2022/10/30 06:19:58;;;;;;;14.90;5.45;;;16.90;99.90;;;;;;5018178;28;20037;-83
2022/10/30 06:22:53;;;;;;;15.82;6.00;;;17.10;99.90;;;;;;5027348;28;20594;-83
2022/10/30 06:25:21;;;;;;;18.45;5.85;;;16.90;99.90;;;;;;5012531;28;20049;-83
2022/10/30 06:28:17;;;;;;;10.88;5.40;;;16.90;99.90;;;;;;4957182;28;20062;-82
2022/10/30 06:30:45;;;;;;;11.35;5.70;;;16.80;99.90;;;;;;5021072;28;20442;-82
2022/10/30 06:33:12;;;;;;;20.13;6.18;;;17.00;99.90;;;;;;5013367;28;20052;-82
2022/10/30 06:35:44;;;;;;;16.50;6.28;;;16.80;99.90;;;;;;5008509;28;20045;-81
2022/10/30 06:38:11;;;;;;;15.65;6.50;;;16.70;99.90;;;;;;5029068;28;20148;-82
2022/10/30 06:40:38;;;;;;;17.50;6.47;;;16.70;99.90;;;;;;5010885;28;20045;-81
2022/10/30 06:43:24;;;;;;;15.57;5.88;;;16.70;99.90;;;;;;5026383;28;20071;-82
2022/10/30 06:45:59;;;;;;;10.68;6.05;;;16.70;99.90;;;;;;5010645;28;20049;-81
2022/10/30 06:48:26;;;;;;;19.25;6.38;;;16.60;99.90;;;;;;5010958;28;20084;-81
2022/10/30 06:50:55;;;;;;;14.93;5.32;;;16.60;99.90;;;;;;5014874;28;20041;-81
2022/10/30 06:53:23;;;;;;;12.65;5.90;;;16.60;99.90;;;;;;5004683;28;20063;-81
2022/10/30 06:55:57;;;;;;;13.20;6.05;;;16.60;99.90;;;;;;5010093;28;20080;-80
2022/10/30 06:58:42;;;;;;;13.55;5.85;;;16.60;99.90;;;;;;5028995;28;20079;-81
2022/10/30 07:01:29;;;;;;;17.25;6.65;;;16.50;99.90;;;;;;5029218;28;20111;-81
2022/10/30 07:04:01;;;;;;;14.23;6.53;;;16.50;99.90;;;;;;5011524;28;20041;-82
2022/10/30 07:06:28;;;;;;;17.55;6.68;;;16.50;99.90;;;;;;5027702;28;20033;-83
2022/10/30 07:08:55;;;;;;;13.27;6.22;;;16.50;99.90;;;;;;5010606;28;20476;-83
2022/10/30 07:11:22;;;;;;;16.13;5.90;;;16.50;99.90;;;;;;5009914;28;20509;-83
2022/10/30 07:14:08;;;;;;;22.92;6.18;;;16.50;99.90;;;;;;5027010;28;20045;-82
2022/10/30 07:16:43;;;;;;;14.77;6.95;;;16.50;99.90;;;;;;5008366;28;20057;-83
2022/10/30 07:19:10;;;;;;;18.98;6.88;;;16.50;99.90;;;;;;5011239;28;20050;-84
2022/10/30 07:21:38;;;;;;;14.57;6.88;;;16.50;99.90;;;;;;5007740;28;20137;-83
2022/10/30 07:24:07;;;;;;;28.27;6.85;;;16.50;99.90;;;;;;5012535;28;20044;-83
2022/10/30 07:26:50;;;;;;;18.08;6.85;;;16.60;99.90;;;;;;5026019;28;20052;-86
2022/10/30 07:29:36;;;;;;;15.93;6.75;;;16.60;99.90;;;;;;5010206;28;20052;-85
2022/10/30 07:32:25;;;;;;;21.52;6.57;;;16.60;99.90;;;;;;5014459;28;20049;-84
2022/10/30 07:35:08;;;;;;;16.67;6.45;;;16.60;99.90;;;;;;5009542;28;20052;-86
2022/10/30 07:37:52;;;;;;;16.02;5.97;;;16.70;99.90;;;;;;5027217;28;20060;-84
2022/10/30 07:40:19;;;;;;;15.00;6.38;;;16.70;99.90;;;;;;5026243;28;20498;-83
2022/10/30 07:42:56;;;;;;;15.85;6.50;;;16.70;99.90;;;;;;5010081;28;20084;-83
2022/10/30 07:45:46;;;;;;;19.20;6.90;;;16.70;99.90;;;;;;5008392;28;20518;-82
2022/10/30 07:48:34;;;;;;;15.85;5.82;;;16.70;99.90;;;;;;5023546;28;20049;-81
2022/10/30 07:51:22;;;;;;;15.40;6.50;;;16.80;99.90;;;;;;5023110;28;20404;-80
2022/10/30 07:53:49;;;;;;;19.48;6.50;;;16.80;99.90;;;;;;5006332;28;20041;-80
2022/10/30 07:56:16;;;;;;;15.73;6.90;;;16.80;99.90;;;;;;5009982;28;20049;-80
2022/10/30 07:58:52;;;;;;;20.20;6.75;;;16.80;99.90;;;;;;5024929;28;20061;-80
2022/10/30 08:01:40;;;;;;;15.77;6.20;;;16.90;99.90;;;;;;5007421;28;20514;-79
2022/10/30 08:04:20;;;;;;;15.93;7.03;;;16.90;99.90;;;;;;5009950;28;20080;-79
2022/10/30 08:06:47;;;;;;;16.02;6.28;;;16.90;99.90;;;;;;5009309;28;20053;-80
2022/10/30 08:09:14;;;;;;;15.35;6.70;;;16.90;99.90;;;;;;5007493;28;20045;-80
2022/10/30 08:11:41;;;;;;;16.23;6.32;;;17.00;99.90;;;;;;5027573;28;20128;-80
2022/10/30 08:14:08;;;;;;;18.17;6.85;;;17.00;99.90;;;;;;5003219;28;20046;-79
2022/10/30 08:16:35;;;;;;;17.10;6.43;;;17.00;99.90;;;;;;5014434;28;20045;-79
2022/10/30 08:19:03;;;;;;;22.60;6.70;;;17.00;99.90;;;;;;5026463;28;20140;-80
2022/10/30 08:21:32;;;;;;;18.10;6.18;;;17.10;99.90;;;;;;5024358;28;20630;-79
2022/10/30 08:24:10;;;;;;;17.50;7.10;;;17.10;99.90;;;;;;5008098;28;20045;-79
2022/10/30 08:26:40;;;;;;;14.68;6.40;;;17.10;99.90;;;;;;5007085;28;20041;-79
2022/10/30 08:29:16;;;;;;;13.98;6.90;;;17.10;99.90;;;;;;5016492;28;20049;-79
2022/10/30 08:31:45;;;;;;;20.23;7.15;;;17.20;99.90;;;;;;5009822;28;20052;-79
2022/10/30 08:34:22;;;;;;;16.05;6.55;;;17.30;99.90;;;;;;5017277;28;20053;-79
2022/10/30 08:36:55;;;;;;;18.13;6.18;;;17.30;99.90;;;;;;5015379;28;20042;-79
2022/10/30 08:39:22;;;;;;;14.45;6.40;;;17.30;99.90;;;;;;5000243;28;20053;-79
2022/10/30 08:42:08;;;;;;;14.38;6.05;;;17.40;99.90;;;;;;5028613;28;20153;-79
2022/10/30 08:44:41;;;;;;;19.65;6.15;;;17.40;99.90;;;;;;5013207;28;20470;-80
2022/10/30 08:47:27;;;;;;;15.15;6.32;;;17.50;99.90;;;;;;5027565;28;20537;-79
2022/10/30 08:49:54;;;;;;;15.23;6.32;;;17.50;99.90;;;;;;5029143;28;20509;-79
2022/10/30 08:52:26;;;;;;;14.43;6.18;;;17.50;99.90;;;;;;5010575;28;20041;-79
2022/10/30 08:54:56;;;;;;;19.83;6.20;;;17.60;99.90;;;;;;5025969;28;20029;-76
2022/10/30 08:57:25;;;;;;;18.48;6.00;;;17.60;99.90;;;;;;5011796;28;20461;-76
2022/10/30 08:59:54;;;;;;;20.58;6.50;;;17.80;99.90;;;;;;5011401;28;20509;-76
2022/10/30 09:02:39;;;;;;;19.80;5.53;;;17.70;99.90;;;;;;5029682;28;20488;-76
2022/10/30 09:05:42;;;;;;;12.82;5.55;;;17.80;99.90;;;;;;4930647;29;20055;-76
2022/10/30 09:08:19;;;;;;;15.32;5.70;;;18.00;99.90;;;;;;5018302;28;20053;-76
2022/10/30 09:11:04;;;;;;;16.60;5.70;;;17.90;99.90;;;;;;5030486;28;20150;-76
2022/10/30 09:13:32;;;;;;;16.98;5.45;;;17.90;99.90;;;;;;5021652;28;20052;-76
2022/10/30 09:16:01;;;;;;;12.73;5.78;;;17.90;99.90;;;;;;5012619;28;20045;-77
2022/10/30 09:18:29;;;;;;;24.92;6.00;;;18.00;99.90;;;;;;5016320;28;20049;-77
2022/10/30 09:20:57;;;;;;;19.85;5.28;;;18.00;99.90;;;;;;5029240;28;20060;-77
2022/10/30 09:23:26;;;;;;;16.13;5.47;;;18.00;99.90;;;;;;5017273;28;20049;-77
2022/10/30 09:26:04;;;;;;;19.02;5.82;;;18.00;99.90;;;;;;5012560;28;20044;-77
2022/10/30 09:28:48;;;;;;;14.23;4.75;;;18.10;99.90;;;;;;5012776;28;20060;-77
2022/10/30 09:31:50;;;;;;;14.30;4.68;;;18.20;99.90;;;;;;4984519;28;20169;-77
2022/10/30 09:34:23;;;;;;;22.42;5.53;;;18.20;99.90;;;;;;5003737;28;20041;-77
2022/10/30 09:36:56;;;;;;;15.40;5.03;;;18.20;99.90;;;;;;5013263;28;20494;-77
2022/10/30 09:39:25;;;;;;;13.63;5.47;;;18.30;99.90;;;;;;5009850;28;20060;-77
2022/10/30 09:42:12;;;;;;;17.30;5.50;;;18.30;99.90;;;;;;5012789;28;20069;-77
2022/10/30 09:44:48;;;;;;;12.25;4.97;;;18.40;99.90;;;;;;5012589;28;20037;-77
2022/10/30 09:47:22;;;;;;;14.13;4.97;;;18.40;99.90;;;;;;5012916;28;20069;-77
2022/10/30 09:50:00;;;;;;;15.07;5.03;;;18.40;99.90;;;;;;5013127;28;20578;-77
2022/10/30 09:52:29;;;;;;;14.60;5.15;;;18.40;99.90;;;;;;5016473;28;20114;-77
2022/10/30 09:55:11;;;;;;;10.73;4.45;;;18.50;99.90;;;;;;5011904;28;20045;-77
2022/10/30 09:57:43;;;;;;;13.25;4.82;;;18.50;99.90;;;;;;5012693;28;20053;-77
2022/10/30 10:00:13;;;;;;;15.88;4.90;;;18.60;99.90;;;;;;5013100;28;20144;-77
2022/10/30 10:02:55;;;;;;;20.13;5.95;;;18.60;99.90;;;;;;5029690;28;20052;-77
2022/10/30 10:05:26;;;;;;;14.53;5.43;;;18.60;99.90;;;;;;5009971;28;20064;-77
2022/10/30 10:08:17;;;;;;;17.80;5.65;;;18.60;99.90;;;;;;5030379;28;20061;-77
2022/10/30 10:11:21;;;;;;;15.63;4.55;;;18.70;99.90;;;;;;4988763;28;20053;-77
2022/10/30 10:13:50;;;;;;;15.20;4.75;;;18.70;99.90;;;;;;5031165;28;20116;-77
2022/10/30 10:16:19;;;;;;;15.38;5.53;;;18.70;99.90;;;;;;5028876;28;20037;-77
2022/10/30 10:18:48;;;;;;;14.90;4.78;;;18.80;99.90;;;;;;5030002;28;20045;-76
2022/10/30 10:21:23;;;;;;;15.05;5.30;;;18.80;99.90;;;;;;5029596;28;20047;-81
2022/10/30 10:23:52;;;;;;;13.07;4.65;;;18.80;99.90;;;;;;5030738;28;20048;-77
2022/10/30 10:26:29;;;;;;;18.42;5.38;;;18.90;99.90;;;;;;5029198;28;20045;-78
2022/10/30 10:29:23;;;;;;;17.38;4.78;;;18.90;99.90;;;;;;5028343;28;20056;-78
2022/10/30 10:32:02;;;;;;;12.48;4.45;;;18.90;99.90;;;;;;5027813;28;20042;-78
2022/10/30 10:34:43;;;;;;;13.95;4.72;;;19.00;99.90;;;;;;5029054;28;20041;-82
2022/10/30 10:37:17;;;;;;;16.20;5.40;;;19.00;99.90;;;;;;5029301;28;20585;-81
2022/10/30 10:39:57;;;;;;;15.05;4.57;;;19.00;99.90;;;;;;5011056;28;20054;-80
2022/10/30 10:42:33;;;;;;;16.33;5.20;;;19.00;99.90;;;;;;5029071;28;20041;-81
2022/10/30 10:45:20;;;;;;;12.82;5.00;;;19.10;99.90;;;;;;5028641;28;20417;-81
2022/10/30 10:48:17;;;;;;;14.85;4.30;;;19.10;99.90;;;;;;5015191;28;20049;-81
2022/10/30 10:50:48;;;;;;;16.52;4.90;;;19.20;99.90;;;;;;5008352;28;20057;-82
2022/10/30 10:53:20;;;;;;;12.23;4.40;;;19.20;99.90;;;;;;5028898;28;20045;-82
2022/10/30 10:55:52;;;;;;;14.43;4.57;;;19.20;99.90;;;;;;5025126;28;20092;-81
2022/10/30 10:58:27;;;;;;;14.85;4.40;;;19.20;99.90;;;;;;5027782;28;20045;-82
2022/10/30 11:00:56;;;;;;;16.98;4.78;;;19.30;99.90;;;;;;5029495;28;20041;-81
2022/10/30 11:03:32;;;;;;;15.38;4.53;;;19.30;99.90;;;;;;5020536;28;20061;-81
2022/10/30 11:06:17;;;;;;;13.15;4.60;;;19.30;99.90;;;;;;5024150;28;20131;-82
2022/10/30 11:08:46;;;;;;;14.88;4.70;;;19.40;99.90;;;;;;5022698;28;20111;-82
2022/10/30 11:11:14;;;;;;;13.10;4.43;;;19.40;99.90;;;;;;5026701;28;20037;-82
2022/10/30 11:13:44;;;;;;;11.40;4.13;;;19.50;99.90;;;;;;5029961;28;20041;-82
2022/10/30 11:16:22;;;;;;;17.02;4.53;;;19.50;99.90;;;;;;5022633;28;20042;-82
2022/10/30 11:18:52;;;;;;;16.90;4.68;;;19.50;99.90;;;;;;5027392;28;20052;-82
2022/10/30 11:21:22;;;;;;;10.63;3.90;;;19.60;99.90;;;;;;5010348;28;20057;-82
2022/10/30 11:23:49;;;;;;;16.70;4.60;;;19.60;99.90;;;;;;5011314;28;20051;-82
2022/10/30 11:26:31;;;;;;;16.42;4.03;;;19.60;99.90;;;;;;5027150;28;20045;-82
2022/10/30 11:29:04;;;;;;;14.68;4.25;;;19.70;99.90;;;;;;5026431;28;20513;-82
2022/10/30 11:31:36;;;;;;;16.33;4.60;;;19.70;99.90;;;;;;5027389;28;20045;-82
2022/10/30 11:34:25;;;;;;;13.45;4.03;;;19.70;99.90;;;;;;5028956;28;20038;-81
2022/10/30 11:36:53;;;;;;;18.02;4.30;;;19.70;99.90;;;;;;5030093;28;20049;-82
2022/10/30 11:39:21;;;;;;;9.50;3.63;;;19.80;99.90;;;;;;5021343;28;20328;-82
2022/10/30 11:41:56;;;;;;;15.20;4.05;;;19.80;99.90;;;;;;5026801;28;20043;-82
2022/10/30 11:44:27;;;;;;;15.27;4.20;;;19.80;99.90;;;;;;5030036;28;20048;-82
2022/10/30 11:46:54;;;;;;;17.25;4.60;;;19.80;99.90;;;;;;5028553;28;20041;-81
2022/10/30 11:49:32;;;;;;;12.70;4.00;;;19.80;99.90;;;;;;5010971;28;20052;-81
2022/10/30 11:51:59;;;;;;;9.20;4.05;;;19.80;99.90;;;;;;5024506;28;20045;-80
2022/10/30 11:54:26;;;;;;;16.80;4.50;;;19.80;99.90;;;;;;5021944;28;20044;-82
2022/10/30 11:56:54;;;;;;;11.18;4.47;;;19.80;99.90;;;;;;5029276;28;20045;-81
2022/10/30 11:59:24;;;;;;;13.60;3.80;;;19.90;99.90;;;;;;5028496;28;20487;-82
2022/10/30 12:01:59;;;;;;;16.13;3.92;;;19.90;99.90;;;;;;5027383;28;20042;-82
2022/10/30 12:04:28;;;;;;;12.27;4.10;;;19.90;99.90;;;;;;5027303;28;20041;-80
2022/10/30 12:07:09;;;;;;;15.20;4.55;;;19.90;99.90;;;;;;5036916;22;20055;-83
2022/10/30 12:09:43;;;;;;;13.60;4.82;;;19.90;99.90;;;;;;5024328;28;20181;-83
2022/10/30 12:12:22;;;;;;;8.25;4.00;;;19.90;99.90;;;;;;5020046;28;20738;-84
2022/10/30 12:14:50;;;;;;;18.13;4.85;;;20.00;99.90;;;;;;5016576;28;20061;-83
2022/10/30 12:17:18;;;;;;;12.13;4.07;;;20.00;99.90;;;;;;5009713;28;20418;-83
2022/10/30 12:19:47;;;;;;;16.95;4.60;;;20.00;99.90;;;;;;5009758;28;20041;-84
2022/10/30 12:22:26;;;;;;;16.80;4.25;;;20.00;99.90;;;;;;4990152;28;20144;-84
2022/10/30 12:24:53;;;;;;;13.32;4.38;;;20.00;99.90;;;;;;5006834;28;20069;-83
2022/10/30 12:27:20;;;;;;;11.65;3.97;;;20.00;99.90;;;;;;5009934;28;20048;-84
2022/10/30 12:30:03;;;;;;;13.23;4.75;;;20.00;99.90;;;;;;5009534;28;20512;-83
2022/10/30 12:32:36;;;;;;;16.55;4.70;;;20.10;99.90;;;;;;5004568;28;20046;-84
2022/10/30 12:35:06;;;;;;;16.23;4.30;;;20.10;99.90;;;;;;5005110;28;20038;-84
2022/10/30 12:37:36;;;;;;;15.90;4.07;;;20.10;99.90;;;;;;5009483;28;20041;-83
2022/10/30 12:40:06;;;;;;;16.25;4.47;;;20.10;99.90;;;;;;5008030;28;20421;-83
2022/10/30 12:42:37;;;;;;;20.42;5.18;;;20.10;99.90;;;;;;5000843;28;20049;-83
2022/10/30 12:45:12;;;;;;;15.70;4.38;;;20.20;99.90;;;;;;5004135;28;20076;-83
2022/10/30 12:47:41;;;;;;;15.60;4.72;;;20.10;99.90;;;;;;5009531;28;20048;-83
2022/10/30 12:50:17;;;;;;;15.15;4.97;;;20.20;99.90;;;;;;5009496;28;20053;-84
2022/10/30 12:52:46;;;;;;;19.38;5.45;;;20.10;99.90;;;;;;5009654;28;20042;-87
2022/10/30 12:55:19;;;;;;;11.48;4.70;;;20.20;99.90;;;;;;4993448;28;20073;-86
2022/10/30 12:57:49;;;;;;;15.23;4.50;;;20.20;99.90;;;;;;5008686;28;20053;-87
2022/10/30 13:00:18;;;;;;;10.40;4.22;;;20.20;99.90;;;;;;5005800;28;20050;-86
2022/10/30 13:02:51;;;;;;;12.63;4.50;;;20.20;99.90;;;;;;5005612;28;20065;-86
2022/10/30 13:05:26;;;;;;;12.07;4.35;;;20.20;99.90;;;;;;5007396;28;20437;-84
2022/10/30 13:08:01;;;;;;;14.15;4.45;;;20.20;99.90;;;;;;5005688;28;20045;-85